sensor_id;sensor_type;location;lat;lon;timestamp;pressure;altitude;pressure_sealevel;temperature;humidity
43364;BME280;40636;52.424;-1.948;2023-04-09T00:00:14;100757.44;;;7.05;100.00
43364;BME280;40636;52.424;-1.948;2023-04-09T00:02:42;100754.50;;;7.00;100.00
43364;BME280;40636;52.424;-1.948;2023-04-09T00:05:08;100751.78;;;7.00;100.00
43364;BME280;40636;52.424;-1.948;2023-04-09T00:07:35;100748.41;;;6.98;100.00
43364;BME280;40636;52.424;-1.948;2023-04-09T00:10:02;100748.22;;;7.00;100.00
43364;BME280;40636;52.424;-1.948;2023-04-09T00:12:29;100743.59;;;7.00;100.00
43364;BME280;40636;52.424;-1.948;2023-04-09T00:14:56;100741.88;;;6.99;100.00
43364;BME280;40636;52.424;-1.948;2023-04-09T00:17:23;100739.16;;;6.99;100.00
43364;BME280;40636;52.424;-1.948;2023-04-09T00:19:49;100747.34;;;6.93;100.00
43364;BME280;40636;52.424;-1.948;2023-04-09T00:22:16;100744.84;;;6.91;100.00
43364;BME280;40636;52.424;-1.948;2023-04-09T00:24:43;100746.91;;;6.89;100.00
43364;BME280;40636;52.424;-1.948;2023-04-09T00:27:10;100732.66;;;6.87;100.00
43364;BME280;40636;52.424;-1.948;2023-04-09T00:29:36;100739.78;;;6.88;100.00
43364;BME280;40636;52.424;-1.948;2023-04-09T00:32:03;100741.03;;;6.85;100.00
43364;BME280;40636;52.424;-1.948;2023-04-09T00:34:30;100731.81;;;6.86;100.00
43364;BME280;40636;52.424;-1.948;2023-04-09T00:36:57;100730.97;;;6.86;100.00
43364;BME280;40636;52.424;-1.948;2023-04-09T00:39:24;100735.56;;;6.85;100.00
43364;BME280;40636;52.424;-1.948;2023-04-09T00:41:58;100729.72;;;6.82;100.00
43364;BME280;40636;52.424;-1.948;2023-04-09T00:44:27;100727.59;;;6.84;100.00
43364;BME280;40636;52.424;-1.948;2023-04-09T00:46:54;100730.13;;;6.85;100.00
43364;BME280;40636;52.424;-1.948;2023-04-09T00:49:21;100730.53;;;6.89;100.00
43364;BME280;40636;52.424;-1.948;2023-04-09T00:51:50;100719.44;;;6.91;100.00
43364;BME280;40636;52.424;-1.948;2023-04-09T00:54:17;100720.06;;;6.93;100.00
43364;BME280;40636;52.424;-1.948;2023-04-09T00:56:44;100712.91;;;6.85;100.00
43364;BME280;40636;52.424;-1.948;2023-04-09T00:59:11;100714.41;;;6.88;100.00
43364;BME280;40636;52.424;-1.948;2023-04-09T01:01:38;100708.28;;;6.85;100.00
43364;BME280;40636;52.424;-1.948;2023-04-09T01:04:05;100699.72;;;6.82;100.00
43364;BME280;40636;52.424;-1.948;2023-04-09T01:06:40;100698.22;;;6.79;100.00
43364;BME280;40636;52.424;-1.948;2023-04-09T01:09:25;100696.97;;;6.82;100.00
43364;BME280;40636;52.424;-1.948;2023-04-09T01:12:20;100688.34;;;6.85;100.00
43364;BME280;40636;52.424;-1.948;2023-04-09T01:15:06;100686.91;;;6.82;100.00
43364;BME280;40636;52.424;-1.948;2023-04-09T01:20:13;100689.41;;;6.84;100.00
43364;BME280;40636;52.424;-1.948;2023-04-09T01:28:16;100681.00;;;6.79;100.00
43364;BME280;40636;52.424;-1.948;2023-04-09T01:30:47;100681.41;;;6.76;100.00
43364;BME280;40636;52.424;-1.948;2023-04-09T01:33:16;100681.84;;;6.73;100.00
43364;BME280;40636;52.424;-1.948;2023-04-09T01:35:45;100680.16;;;6.72;100.00
43364;BME280;40636;52.424;-1.948;2023-04-09T01:38:14;100679.75;;;6.68;100.00
43364;BME280;40636;52.424;-1.948;2023-04-09T01:40:42;100671.53;;;6.61;100.00
43364;BME280;40636;52.424;-1.948;2023-04-09T01:43:09;100673.44;;;6.54;100.00
43364;BME280;40636;52.424;-1.948;2023-04-09T01:45:38;100674.44;;;6.47;100.00
43364;BME280;40636;52.424;-1.948;2023-04-09T01:48:05;100672.97;;;6.44;100.00
43364;BME280;40636;52.424;-1.948;2023-04-09T01:50:32;100676.53;;;6.38;100.00
43364;BME280;40636;52.424;-1.948;2023-04-09T01:53:00;100678.38;;;6.31;100.00
43364;BME280;40636;52.424;-1.948;2023-04-09T01:55:27;100679.19;;;6.25;100.00
43364;BME280;40636;52.424;-1.948;2023-04-09T01:57:53;100669.13;;;6.19;100.00
43364;BME280;40636;52.424;-1.948;2023-04-09T02:00:20;100668.66;;;6.08;100.00
43364;BME280;40636;52.424;-1.948;2023-04-09T02:02:56;100671.81;;;6.05;100.00
43364;BME280;40636;52.424;-1.948;2023-04-09T02:05:28;100671.91;;;5.91;100.00
43364;BME280;40636;52.424;-1.948;2023-04-09T02:07:58;100674.59;;;5.84;100.00
43364;BME280;40636;52.424;-1.948;2023-04-09T02:10:29;100679.34;;;5.69;100.00
43364;BME280;40636;52.424;-1.948;2023-04-09T02:12:59;100673.00;;;5.62;100.00
43364;BME280;40636;52.424;-1.948;2023-04-09T02:15:27;100682.81;;;5.56;100.00
43364;BME280;40636;52.424;-1.948;2023-04-09T02:17:54;100674.19;;;5.52;100.00
43364;BME280;40636;52.424;-1.948;2023-04-09T02:20:21;100675.47;;;5.50;100.00
43364;BME280;40636;52.424;-1.948;2023-04-09T02:22:48;100669.97;;;5.43;100.00
43364;BME280;40636;52.424;-1.948;2023-04-09T02:25:14;100673.63;;;5.29;100.00
43364;BME280;40636;52.424;-1.948;2023-04-09T02:27:41;100670.19;;;5.14;100.00
43364;BME280;40636;52.424;-1.948;2023-04-09T02:30:08;100673.03;;;5.05;100.00
43364;BME280;40636;52.424;-1.948;2023-04-09T02:32:35;100669.03;;;5.01;100.00
43364;BME280;40636;52.424;-1.948;2023-04-09T02:35:01;100677.56;;;4.98;100.00
43364;BME280;40636;52.424;-1.948;2023-04-09T02:37:28;100676.28;;;4.94;100.00
43364;BME280;40636;52.424;-1.948;2023-04-09T02:39:56;100672.53;;;4.95;100.00
43364;BME280;40636;52.424;-1.948;2023-04-09T02:42:23;100671.88;;;4.93;100.00
43364;BME280;40636;52.424;-1.948;2023-04-09T02:44:50;100679.16;;;4.86;100.00
43364;BME280;40636;52.424;-1.948;2023-04-09T02:47:16;100677.03;;;4.81;100.00
43364;BME280;40636;52.424;-1.948;2023-04-09T02:49:43;100676.94;;;4.75;100.00
43364;BME280;40636;52.424;-1.948;2023-04-09T02:52:10;100678.56;;;4.69;100.00
43364;BME280;40636;52.424;-1.948;2023-04-09T02:54:36;100672.41;;;4.61;100.00
43364;BME280;40636;52.424;-1.948;2023-04-09T02:57:03;100677.19;;;4.58;100.00
43364;BME280;40636;52.424;-1.948;2023-04-09T02:59:30;100680.56;;;4.61;100.00
43364;BME280;40636;52.424;-1.948;2023-04-09T03:01:58;100670.28;;;4.56;100.00
43364;BME280;40636;52.424;-1.948;2023-04-09T03:04:25;100673.13;;;4.48;100.00
43364;BME280;40636;52.424;-1.948;2023-04-09T03:06:51;100664.91;;;4.41;100.00
43364;BME280;40636;52.424;-1.948;2023-04-09T03:09:18;100667.38;;;4.36;100.00
43364;BME280;40636;52.424;-1.948;2023-04-09T03:11:45;100663.97;;;4.34;100.00
43364;BME280;40636;52.424;-1.948;2023-04-09T03:14:11;100662.69;;;4.30;100.00
43364;BME280;40636;52.424;-1.948;2023-04-09T03:16:38;100661.63;;;4.31;100.00
43364;BME280;40636;52.424;-1.948;2023-04-09T03:19:05;100662.09;;;4.35;100.00
43364;BME280;40636;52.424;-1.948;2023-04-09T03:21:31;100659.50;;;4.26;100.00
43364;BME280;40636;52.424;-1.948;2023-04-09T03:23:58;100656.50;;;4.21;100.00
43364;BME280;40636;52.424;-1.948;2023-04-09T03:26:25;100652.91;;;4.14;100.00
43364;BME280;40636;52.424;-1.948;2023-04-09T03:28:51;100660.31;;;4.05;100.00
43364;BME280;40636;52.424;-1.948;2023-04-09T03:31:18;100656.56;;;4.06;100.00
43364;BME280;40636;52.424;-1.948;2023-04-09T03:33:45;100656.09;;;4.03;100.00
43364;BME280;40636;52.424;-1.948;2023-04-09T03:36:12;100651.81;;;3.94;100.00
43364;BME280;40636;52.424;-1.948;2023-04-09T03:38:39;100654.44;;;3.87;100.00
43364;BME280;40636;52.424;-1.948;2023-04-09T03:41:06;100643.75;;;3.86;100.00
43364;BME280;40636;52.424;-1.948;2023-04-09T03:43:32;100646.47;;;3.86;100.00
43364;BME280;40636;52.424;-1.948;2023-04-09T03:45:59;100641.91;;;3.86;100.00
43364;BME280;40636;52.424;-1.948;2023-04-09T03:48:25;100634.59;;;3.72;100.00
43364;BME280;40636;52.424;-1.948;2023-04-09T03:50:52;100640.16;;;3.64;100.00
43364;BME280;40636;52.424;-1.948;2023-04-09T03:53:19;100641.38;;;3.61;100.00
43364;BME280;40636;52.424;-1.948;2023-04-09T03:55:46;100639.59;;;3.53;100.00
43364;BME280;40636;52.424;-1.948;2023-04-09T03:58:12;100634.56;;;3.50;100.00
43364;BME280;40636;52.424;-1.948;2023-04-09T04:00:39;100634.91;;;3.47;100.00
43364;BME280;40636;52.424;-1.948;2023-04-09T04:03:05;100625.09;;;3.46;100.00
43364;BME280;40636;52.424;-1.948;2023-04-09T04:05:33;100626.78;;;3.47;100.00
43364;BME280;40636;52.424;-1.948;2023-04-09T04:07:59;100623.69;;;3.50;100.00
43364;BME280;40636;52.424;-1.948;2023-04-09T04:10:26;100624.44;;;3.44;100.00
43364;BME280;40636;52.424;-1.948;2023-04-09T04:12:52;100610.88;;;3.29;100.00
43364;BME280;40636;52.424;-1.948;2023-04-09T04:15:19;100613.03;;;3.34;100.00
43364;BME280;40636;52.424;-1.948;2023-04-09T04:17:46;100611.06;;;3.28;100.00
43364;BME280;40636;52.424;-1.948;2023-04-09T04:20:12;100607.31;;;3.29;100.00
43364;BME280;40636;52.424;-1.948;2023-04-09T04:22:39;100613.94;;;3.26;100.00
43364;BME280;40636;52.424;-1.948;2023-04-09T04:25:06;100614.91;;;3.19;100.00
43364;BME280;40636;52.424;-1.948;2023-04-09T04:27:33;100609.00;;;3.15;100.00
43364;BME280;40636;52.424;-1.948;2023-04-09T04:29:59;100598.91;;;3.09;100.00
43364;BME280;40636;52.424;-1.948;2023-04-09T04:32:27;100597.41;;;3.07;100.00
43364;BME280;40636;52.424;-1.948;2023-04-09T04:34:54;100591.50;;;3.03;100.00
43364;BME280;40636;52.424;-1.948;2023-04-09T04:37:21;100595.03;;;3.03;100.00
43364;BME280;40636;52.424;-1.948;2023-04-09T04:39:47;100587.13;;;3.02;100.00
43364;BME280;40636;52.424;-1.948;2023-04-09T04:42:14;100586.75;;;3.05;100.00
43364;BME280;40636;52.424;-1.948;2023-04-09T04:44:43;100591.34;;;3.04;100.00
43364;BME280;40636;52.424;-1.948;2023-04-09T04:47:10;100585.44;;;3.01;100.00
43364;BME280;40636;52.424;-1.948;2023-04-09T04:49:37;100579.72;;;3.11;100.00
43364;BME280;40636;52.424;-1.948;2023-04-09T04:52:05;100578.69;;;3.12;100.00
43364;BME280;40636;52.424;-1.948;2023-04-09T04:54:32;100588.91;;;3.10;100.00
43364;BME280;40636;52.424;-1.948;2023-04-09T04:56:59;100590.94;;;3.08;100.00
43364;BME280;40636;52.424;-1.948;2023-04-09T04:59:27;100597.59;;;3.05;100.00
43364;BME280;40636;52.424;-1.948;2023-04-09T05:01:53;100596.38;;;3.08;100.00
43364;BME280;40636;52.424;-1.948;2023-04-09T05:04:20;100603.66;;;3.07;100.00
43364;BME280;40636;52.424;-1.948;2023-04-09T05:06:47;100597.69;;;3.12;100.00
43364;BME280;40636;52.424;-1.948;2023-04-09T05:09:14;100600.88;;;3.00;100.00
43364;BME280;40636;52.424;-1.948;2023-04-09T05:11:41;100591.56;;;2.95;100.00
43364;BME280;40636;52.424;-1.948;2023-04-09T05:14:07;100593.00;;;3.05;100.00
43364;BME280;40636;52.424;-1.948;2023-04-09T05:16:34;100593.38;;;3.17;100.00
43364;BME280;40636;52.424;-1.948;2023-04-09T05:19:01;100588.41;;;3.21;100.00
43364;BME280;40636;52.424;-1.948;2023-04-09T05:21:28;100590.50;;;3.19;100.00
43364;BME280;40636;52.424;-1.948;2023-04-09T05:23:54;100590.00;;;3.30;100.00
43364;BME280;40636;52.424;-1.948;2023-04-09T05:26:21;100588.41;;;3.21;100.00
43364;BME280;40636;52.424;-1.948;2023-04-09T05:28:48;100593.84;;;3.21;100.00
43364;BME280;40636;52.424;-1.948;2023-04-09T05:31:15;100577.69;;;3.27;100.00
43364;BME280;40636;52.424;-1.948;2023-04-09T05:33:42;100569.63;;;3.34;100.00
43364;BME280;40636;52.424;-1.948;2023-04-09T05:36:14;100565.50;;;3.38;100.00
43364;BME280;40636;52.424;-1.948;2023-04-09T05:38:43;100566.81;;;3.42;100.00
43364;BME280;40636;52.424;-1.948;2023-04-09T05:41:09;100565.69;;;3.51;100.00
43364;BME280;40636;52.424;-1.948;2023-04-09T05:43:36;100555.94;;;3.57;100.00
43364;BME280;40636;52.424;-1.948;2023-04-09T05:46:03;100556.50;;;3.52;100.00
43364;BME280;40636;52.424;-1.948;2023-04-09T05:48:30;100551.44;;;3.49;100.00
43364;BME280;40636;52.424;-1.948;2023-04-09T05:50:57;100546.03;;;3.49;100.00
43364;BME280;40636;52.424;-1.948;2023-04-09T05:53:26;100547.41;;;3.60;100.00
43364;BME280;40636;52.424;-1.948;2023-04-09T05:55:52;100539.34;;;3.67;100.00
43364;BME280;40636;52.424;-1.948;2023-04-09T05:58:19;100536.72;;;3.73;100.00
43364;BME280;40636;52.424;-1.948;2023-04-09T06:00:46;100529.69;;;3.79;100.00
43364;BME280;40636;52.424;-1.948;2023-04-09T06:03:13;100528.25;;;3.83;100.00
43364;BME280;40636;52.424;-1.948;2023-04-09T06:05:40;100521.88;;;3.91;100.00
43364;BME280;40636;52.424;-1.948;2023-04-09T06:08:06;100534.69;;;3.97;100.00
43364;BME280;40636;52.424;-1.948;2023-04-09T06:10:33;100534.16;;;4.08;100.00
43364;BME280;40636;52.424;-1.948;2023-04-09T06:13:00;100533.81;;;4.18;100.00
43364;BME280;40636;52.424;-1.948;2023-04-09T06:15:26;100541.47;;;4.29;100.00
43364;BME280;40636;52.424;-1.948;2023-04-09T06:17:53;100547.81;;;4.36;100.00
43364;BME280;40636;52.424;-1.948;2023-04-09T06:20:22;100548.91;;;4.42;100.00
43364;BME280;40636;52.424;-1.948;2023-04-09T06:22:49;100550.38;;;4.44;100.00
43364;BME280;40636;52.424;-1.948;2023-04-09T06:25:16;100551.28;;;4.51;100.00
43364;BME280;40636;52.424;-1.948;2023-04-09T06:27:42;100560.06;;;4.53;100.00
43364;BME280;40636;52.424;-1.948;2023-04-09T06:30:09;100558.84;;;4.56;100.00
43364;BME280;40636;52.424;-1.948;2023-04-09T06:32:36;100553.84;;;4.60;100.00
43364;BME280;40636;52.424;-1.948;2023-04-09T06:35:16;100561.22;;;4.66;100.00
43364;BME280;40636;52.424;-1.948;2023-04-09T06:37:43;100571.75;;;4.75;100.00
43364;BME280;40636;52.424;-1.948;2023-04-09T06:40:10;100573.47;;;4.83;100.00
43364;BME280;40636;52.424;-1.948;2023-04-09T06:42:37;100576.91;;;4.92;100.00
43364;BME280;40636;52.424;-1.948;2023-04-09T06:45:04;100570.06;;;5.02;100.00
43364;BME280;40636;52.424;-1.948;2023-04-09T06:47:34;100579.50;;;5.06;100.00
43364;BME280;40636;52.424;-1.948;2023-04-09T06:50:02;100570.78;;;5.18;100.00
43364;BME280;40636;52.424;-1.948;2023-04-09T06:52:29;100564.78;;;5.29;100.00
43364;BME280;40636;52.424;-1.948;2023-04-09T06:54:56;100565.25;;;5.39;100.00
43364;BME280;40636;52.424;-1.948;2023-04-09T06:57:23;100559.44;;;5.49;100.00
43364;BME280;40636;52.424;-1.948;2023-04-09T06:59:49;100559.88;;;5.52;100.00
43364;BME280;40636;52.424;-1.948;2023-04-09T07:02:16;100549.81;;;5.53;100.00
43364;BME280;40636;52.424;-1.948;2023-04-09T07:04:43;100545.88;;;5.62;100.00
43364;BME280;40636;52.424;-1.948;2023-04-09T07:07:10;100550.72;;;5.67;100.00
43364;BME280;40636;52.424;-1.948;2023-04-09T07:09:38;100547.41;;;5.78;100.00
43364;BME280;40636;52.424;-1.948;2023-04-09T07:12:04;100539.69;;;5.81;100.00
43364;BME280;40636;52.424;-1.948;2023-04-09T07:14:31;100544.28;;;5.88;100.00
43364;BME280;40636;52.424;-1.948;2023-04-09T07:16:58;100520.47;;;5.96;100.00
43364;BME280;40636;52.424;-1.948;2023-04-09T07:19:25;100526.09;;;5.95;100.00
43364;BME280;40636;52.424;-1.948;2023-04-09T07:21:52;100518.34;;;5.98;100.00
43364;BME280;40636;52.424;-1.948;2023-04-09T07:24:18;100523.63;;;6.06;100.00
43364;BME280;40636;52.424;-1.948;2023-04-09T07:26:45;100532.84;;;6.12;100.00
43364;BME280;40636;52.424;-1.948;2023-04-09T07:29:12;100533.91;;;6.11;100.00
43364;BME280;40636;52.424;-1.948;2023-04-09T07:31:38;100534.72;;;6.12;100.00
43364;BME280;40636;52.424;-1.948;2023-04-09T07:34:05;100527.63;;;6.10;100.00
43364;BME280;40636;52.424;-1.948;2023-04-09T07:36:32;100519.47;;;6.24;100.00
43364;BME280;40636;52.424;-1.948;2023-04-09T07:38:59;100515.06;;;6.29;100.00
43364;BME280;40636;52.424;-1.948;2023-04-09T07:41:25;100524.91;;;6.37;100.00
43364;BME280;40636;52.424;-1.948;2023-04-09T07:43:52;100523.22;;;6.49;100.00
43364;BME280;40636;52.424;-1.948;2023-04-09T07:46:19;100532.88;;;6.52;100.00
43364;BME280;40636;52.424;-1.948;2023-04-09T07:48:47;100525.75;;;6.57;100.00
43364;BME280;40636;52.424;-1.948;2023-04-09T07:51:15;100527.66;;;6.64;100.00
43364;BME280;40636;52.424;-1.948;2023-04-09T07:53:42;100532.25;;;6.56;100.00
43364;BME280;40636;52.424;-1.948;2023-04-09T07:56:09;100531.63;;;6.61;100.00
43364;BME280;40636;52.424;-1.948;2023-04-09T07:58:35;100537.94;;;6.68;100.00
43364;BME280;40636;52.424;-1.948;2023-04-09T08:01:03;100540.03;;;6.73;100.00
43364;BME280;40636;52.424;-1.948;2023-04-09T08:03:30;100540.22;;;6.71;100.00
43364;BME280;40636;52.424;-1.948;2023-04-09T08:05:57;100539.16;;;6.79;100.00
43364;BME280;40636;52.424;-1.948;2023-04-09T08:08:24;100536.03;;;6.82;100.00
43364;BME280;40636;52.424;-1.948;2023-04-09T08:10:50;100521.53;;;6.88;100.00
43364;BME280;40636;52.424;-1.948;2023-04-09T08:13:17;100526.13;;;6.94;100.00
43364;BME280;40636;52.424;-1.948;2023-04-09T08:15:44;100525.25;;;7.07;100.00
43364;BME280;40636;52.424;-1.948;2023-04-09T08:18:10;100520.19;;;7.24;100.00
43364;BME280;40636;52.424;-1.948;2023-04-09T08:20:37;100533.19;;;7.28;100.00
43364;BME280;40636;52.424;-1.948;2023-04-09T08:23:11;100517.38;;;7.50;100.00
43364;BME280;40636;52.424;-1.948;2023-04-09T08:25:37;100514.59;;;7.63;100.00
43364;BME280;40636;52.424;-1.948;2023-04-09T08:28:04;100515.38;;;7.71;100.00
43364;BME280;40636;52.424;-1.948;2023-04-09T08:30:31;100514.94;;;7.74;100.00
43364;BME280;40636;52.424;-1.948;2023-04-09T08:33:00;100518.94;;;7.71;100.00
43364;BME280;40636;52.424;-1.948;2023-04-09T08:35:29;100517.63;;;7.80;100.00
43364;BME280;40636;52.424;-1.948;2023-04-09T08:37:57;100516.13;;;7.91;100.00
43364;BME280;40636;52.424;-1.948;2023-04-09T08:40:24;100512.72;;;7.96;100.00
43364;BME280;40636;52.424;-1.948;2023-04-09T08:42:53;100504.22;;;8.10;100.00
43364;BME280;40636;52.424;-1.948;2023-04-09T08:45:22;100502.66;;;8.21;100.00
43364;BME280;40636;52.424;-1.948;2023-04-09T08:47:50;100502.78;;;8.33;100.00
43364;BME280;40636;52.424;-1.948;2023-04-09T08:50:18;100481.72;;;8.40;100.00
43364;BME280;40636;52.424;-1.948;2023-04-09T08:52:45;100484.00;;;8.43;100.00
43364;BME280;40636;52.424;-1.948;2023-04-09T08:55:13;100499.31;;;8.51;100.00
43364;BME280;40636;52.424;-1.948;2023-04-09T08:57:41;100495.47;;;8.58;100.00
43364;BME280;40636;52.424;-1.948;2023-04-09T09:00:08;100489.09;;;8.64;100.00
43364;BME280;40636;52.424;-1.948;2023-04-09T09:02:35;100485.03;;;8.67;100.00
43364;BME280;40636;52.424;-1.948;2023-04-09T09:05:02;100485.56;;;8.82;100.00
43364;BME280;40636;52.424;-1.948;2023-04-09T09:07:29;100477.75;;;9.04;100.00
43364;BME280;40636;52.424;-1.948;2023-04-09T09:10:00;100485.56;;;9.19;100.00
43364;BME280;40636;52.424;-1.948;2023-04-09T09:12:30;100478.03;;;9.14;100.00
43364;BME280;40636;52.424;-1.948;2023-04-09T09:14:57;100475.44;;;9.20;100.00
43364;BME280;40636;52.424;-1.948;2023-04-09T09:17:24;100485.81;;;9.36;100.00
43364;BME280;40636;52.424;-1.948;2023-04-09T09:19:52;100491.94;;;9.50;100.00
43364;BME280;40636;52.424;-1.948;2023-04-09T09:22:19;100482.66;;;9.51;100.00
43364;BME280;40636;52.424;-1.948;2023-04-09T09:24:49;100487.31;;;9.50;100.00
43364;BME280;40636;52.424;-1.948;2023-04-09T09:27:31;100491.56;;;9.46;100.00
43364;BME280;40636;52.424;-1.948;2023-04-09T09:30:00;100474.28;;;9.46;100.00
43364;BME280;40636;52.424;-1.948;2023-04-09T09:32:26;100477.88;;;9.46;100.00
43364;BME280;40636;52.424;-1.948;2023-04-09T09:35:04;100468.81;;;9.46;100.00
43364;BME280;40636;52.424;-1.948;2023-04-09T09:37:32;100465.47;;;9.44;100.00
43364;BME280;40636;52.424;-1.948;2023-04-09T09:39:59;100476.03;;;9.58;100.00
43364;BME280;40636;52.424;-1.948;2023-04-09T09:42:26;100470.13;;;9.73;100.00
43364;BME280;40636;52.424;-1.948;2023-04-09T09:44:53;100454.53;;;9.85;100.00
43364;BME280;40636;52.424;-1.948;2023-04-09T09:47:21;100455.34;;;10.04;100.00
43364;BME280;40636;52.424;-1.948;2023-04-09T09:49:49;100455.81;;;10.01;100.00
43364;BME280;40636;52.424;-1.948;2023-04-09T09:52:24;100450.81;;;10.10;100.00
43364;BME280;40636;52.424;-1.948;2023-04-09T09:54:54;100448.44;;;10.13;100.00
43364;BME280;40636;52.424;-1.948;2023-04-09T09:57:25;100450.09;;;10.14;100.00
43364;BME280;40636;52.424;-1.948;2023-04-09T10:00:01;100447.13;;;10.16;100.00
43364;BME280;40636;52.424;-1.948;2023-04-09T10:02:36;100442.16;;;10.25;100.00
43364;BME280;40636;52.424;-1.948;2023-04-09T10:05:07;100436.34;;;10.33;100.00
43364;BME280;40636;52.424;-1.948;2023-04-09T10:07:35;100441.34;;;10.36;100.00
43364;BME280;40636;52.424;-1.948;2023-04-09T10:10:04;100435.13;;;10.29;100.00
43364;BME280;40636;52.424;-1.948;2023-04-09T10:12:31;100435.72;;;10.31;100.00
43364;BME280;40636;52.424;-1.948;2023-04-09T10:15:00;100438.25;;;10.44;100.00
43364;BME280;40636;52.424;-1.948;2023-04-09T10:17:30;100440.63;;;10.52;100.00
43364;BME280;40636;52.424;-1.948;2023-04-09T10:20:17;100435.16;;;10.52;100.00
43364;BME280;40636;52.424;-1.948;2023-04-09T10:22:47;100434.06;;;10.53;100.00
43364;BME280;40636;52.424;-1.948;2023-04-09T10:25:15;100435.97;;;10.53;100.00
43364;BME280;40636;52.424;-1.948;2023-04-09T10:27:43;100433.59;;;10.56;100.00
43364;BME280;40636;52.424;-1.948;2023-04-09T10:30:35;100429.88;;;10.62;100.00
43364;BME280;40636;52.424;-1.948;2023-04-09T10:33:28;100423.56;;;10.74;100.00
43364;BME280;40636;52.424;-1.948;2023-04-09T10:36:00;100418.91;;;10.62;100.00
43364;BME280;40636;52.424;-1.948;2023-04-09T10:38:46;100414.38;;;10.56;100.00
43364;BME280;40636;52.424;-1.948;2023-04-09T10:41:26;100413.41;;;10.62;100.00
43364;BME280;40636;52.424;-1.948;2023-04-09T10:43:56;100408.53;;;10.64;100.00
43364;BME280;40636;52.424;-1.948;2023-04-09T10:46:28;100403.16;;;10.70;100.00
43364;BME280;40636;52.424;-1.948;2023-04-09T10:49:08;100400.31;;;10.64;100.00
43364;BME280;40636;52.424;-1.948;2023-04-09T10:51:37;100389.91;;;10.66;100.00
43364;BME280;40636;52.424;-1.948;2023-04-09T10:57:21;100386.56;;;10.76;100.00
43364;BME280;40636;52.424;-1.948;2023-04-09T10:59:51;100386.91;;;10.80;100.00
43364;BME280;40636;52.424;-1.948;2023-04-09T11:07:46;100384.72;;;11.05;100.00
43364;BME280;40636;52.424;-1.948;2023-04-09T11:10:14;100372.84;;;11.16;100.00
43364;BME280;40636;52.424;-1.948;2023-04-09T11:12:41;100369.19;;;11.39;100.00
43364;BME280;40636;52.424;-1.948;2023-04-09T11:15:18;100364.63;;;11.45;100.00
43364;BME280;40636;52.424;-1.948;2023-04-09T11:17:50;100360.19;;;11.44;100.00
43364;BME280;40636;52.424;-1.948;2023-04-09T11:20:22;100352.47;;;11.41;100.00
43364;BME280;40636;52.424;-1.948;2023-04-09T11:22:51;100355.13;;;11.36;100.00
43364;BME280;40636;52.424;-1.948;2023-04-09T11:25:26;100348.97;;;11.46;100.00
43364;BME280;40636;52.424;-1.948;2023-04-09T11:27:53;100345.72;;;11.49;100.00
43364;BME280;40636;52.424;-1.948;2023-04-09T11:30:20;100345.41;;;11.45;100.00
43364;BME280;40636;52.424;-1.948;2023-04-09T11:32:48;100345.63;;;11.43;100.00
43364;BME280;40636;52.424;-1.948;2023-04-09T11:35:20;100335.63;;;11.37;100.00
43364;BME280;40636;52.424;-1.948;2023-04-09T11:37:48;100335.88;;;11.36;100.00
43364;BME280;40636;52.424;-1.948;2023-04-09T11:40:24;100333.22;;;11.41;100.00
43364;BME280;40636;52.424;-1.948;2023-04-09T11:42:53;100325.22;;;11.39;100.00
43364;BME280;40636;52.424;-1.948;2023-04-09T11:45:28;100315.25;;;11.50;100.00
43364;BME280;40636;52.424;-1.948;2023-04-09T11:47:56;100311.75;;;11.55;100.00
43364;BME280;40636;52.424;-1.948;2023-04-09T11:50:23;100301.75;;;11.65;100.00
43364;BME280;40636;52.424;-1.948;2023-04-09T11:52:51;100302.44;;;11.73;100.00
43364;BME280;40636;52.424;-1.948;2023-04-09T11:55:26;100314.63;;;11.77;100.00
43364;BME280;40636;52.424;-1.948;2023-04-09T11:57:59;100315.28;;;11.84;100.00
43364;BME280;40636;52.424;-1.948;2023-04-09T12:00:27;100306.94;;;11.79;100.00
43364;BME280;40636;52.424;-1.948;2023-04-09T12:03:01;100292.34;;;11.61;100.00
43364;BME280;40636;52.424;-1.948;2023-04-09T12:05:30;100294.00;;;11.62;100.00
43364;BME280;40636;52.424;-1.948;2023-04-09T12:08:02;100279.81;;;11.82;100.00
43364;BME280;40636;52.424;-1.948;2023-04-09T12:10:37;100282.97;;;11.91;100.00
43364;BME280;40636;52.424;-1.948;2023-04-09T12:13:08;100287.31;;;11.87;100.00
43364;BME280;40636;52.424;-1.948;2023-04-09T12:15:40;100290.13;;;11.92;100.00
43364;BME280;40636;52.424;-1.948;2023-04-09T12:18:10;100282.97;;;11.91;100.00
43364;BME280;40636;52.424;-1.948;2023-04-09T12:20:38;100280.97;;;11.86;100.00
43364;BME280;40636;52.424;-1.948;2023-04-09T12:23:06;100278.94;;;11.99;100.00
43364;BME280;40636;52.424;-1.948;2023-04-09T12:25:35;100284.63;;;12.09;100.00
43364;BME280;40636;52.424;-1.948;2023-04-09T12:28:03;100269.09;;;12.19;100.00
43364;BME280;40636;52.424;-1.948;2023-04-09T12:30:31;100267.94;;;12.15;100.00
43364;BME280;40636;52.424;-1.948;2023-04-09T12:32:59;100266.44;;;12.08;100.00
43364;BME280;40636;52.424;-1.948;2023-04-09T12:35:25;100269.78;;;12.10;100.00
43364;BME280;40636;52.424;-1.948;2023-04-09T12:37:52;100270.75;;;12.21;100.00
43364;BME280;40636;52.424;-1.948;2023-04-09T12:40:20;100267.75;;;12.44;100.00
43364;BME280;40636;52.424;-1.948;2023-04-09T12:42:47;100278.00;;;12.70;100.00
43364;BME280;40636;52.424;-1.948;2023-04-09T12:45:15;100274.00;;;12.78;100.00
43364;BME280;40636;52.424;-1.948;2023-04-09T12:47:42;100266.09;;;12.87;100.00
43364;BME280;40636;52.424;-1.948;2023-04-09T12:50:11;100257.69;;;12.99;100.00
43364;BME280;40636;52.424;-1.948;2023-04-09T12:52:38;100257.13;;;12.97;100.00
43364;BME280;40636;52.424;-1.948;2023-04-09T12:55:06;100256.38;;;13.06;100.00
43364;BME280;40636;52.424;-1.948;2023-04-09T12:57:33;100254.47;;;13.07;100.00
43364;BME280;40636;52.424;-1.948;2023-04-09T13:00:00;100247.63;;;13.09;100.00